Time;durP1;ratioP1;P1;durP2;ratioP2;P2;SDS_P1;SDS_P2;PMS_P1;PMS_P2;Temp;Humidity;BMP_temperature;BMP_pressure;BME280_temperature;BME280_humidity;BME280_pressure;Samples;Min_cycle;Max_cycle;Signal;HPM_P1;HPM_P2
2022/12/20 00:00:58;;;;;;;10.10;5.03;;;9.40;99.90;;;;;;5011310;28;20060;-64
2022/12/20 00:03:24;;;;;;;16.00;5.78;;;9.40;99.90;;;;;;4997946;28;20102;-65
2022/12/20 00:05:50;;;;;;;9.05;5.72;;;9.40;99.90;;;;;;5024590;28;20166;-64
2022/12/20 00:08:16;;;;;;;9.15;5.70;;;9.40;99.90;;;;;;5022217;28;20121;-63
2022/12/20 00:10:44;;;;;;;12.73;5.95;;;9.40;99.90;;;;;;5040596;28;20041;-63
2022/12/20 00:13:11;;;;;;;12.50;5.68;;;9.40;99.90;;;;;;5006874;28;20052;-63
2022/12/20 00:15:37;;;;;;;9.90;5.32;;;9.40;99.90;;;;;;5024954;28;20053;-65
2022/12/20 00:18:03;;;;;;;9.70;6.10;;;9.40;99.90;;;;;;5020427;28;20052;-63
2022/12/20 00:20:29;;;;;;;12.05;6.50;;;9.30;99.90;;;;;;5018002;28;20680;-65
2022/12/20 00:22:55;;;;;;;9.55;5.60;;;9.30;99.90;;;;;;4995804;28;20507;-65
2022/12/20 00:25:22;;;;;;;8.75;5.47;;;9.30;99.90;;;;;;4987870;28;20522;-64
2022/12/20 00:27:47;;;;;;;9.82;5.70;;;9.30;99.90;;;;;;5025057;28;20048;-65
2022/12/20 00:30:14;;;;;;;11.57;5.70;;;9.30;99.90;;;;;;5009147;28;20689;-63
2022/12/20 00:32:40;;;;;;;7.07;5.18;;;9.30;99.90;;;;;;5021213;28;20098;-63
2022/12/20 00:35:06;;;;;;;8.07;4.82;;;9.30;99.90;;;;;;5016451;28;20045;-63
2022/12/20 00:37:32;;;;;;;9.48;5.60;;;9.30;99.90;;;;;;5007990;28;20057;-65
2022/12/20 00:39:58;;;;;;;7.25;4.93;;;9.30;99.90;;;;;;5006420;28;20558;-63
2022/12/20 00:42:24;;;;;;;9.30;5.28;;;9.40;99.90;;;;;;5013547;28;20135;-64
2022/12/20 00:44:50;;;;;;;12.27;5.00;;;9.40;99.90;;;;;;4990088;28;20083;-65
2022/12/20 00:47:16;;;;;;;9.10;5.15;;;9.40;99.90;;;;;;4995296;28;20053;-63
2022/12/20 00:49:42;;;;;;;6.93;4.50;;;9.40;99.90;;;;;;5011098;28;20037;-63
2022/12/20 00:52:07;;;;;;;7.43;4.97;;;9.40;99.90;;;;;;5028273;28;20115;-63
2022/12/20 00:54:33;;;;;;;7.18;5.00;;;9.40;99.90;;;;;;5020185;28;20119;-64
2022/12/20 00:56:59;;;;;;;7.15;4.78;;;9.40;99.90;;;;;;4997219;28;20060;-63
2022/12/20 00:59:25;;;;;;;7.50;4.85;;;9.30;99.90;;;;;;5009640;28;20049;-65
2022/12/20 01:01:51;;;;;;;10.02;4.55;;;9.30;99.90;;;;;;5023814;28;20419;-65
2022/12/20 01:04:16;;;;;;;7.45;4.68;;;9.30;99.90;;;;;;5028198;28;20045;-65
2022/12/20 01:06:42;;;;;;;6.88;4.35;;;9.30;99.90;;;;;;5021412;28;20665;-65
2022/12/20 01:09:10;;;;;;;7.88;4.97;;;9.20;99.90;;;;;;5023308;28;20122;-63
2022/12/20 01:11:37;;;;;;;8.10;5.00;;;9.20;99.90;;;;;;5021727;28;20084;-64
2022/12/20 01:14:10;;;;;;;7.25;4.57;;;9.20;99.90;;;;;;5021389;28;20056;-64
2022/12/20 01:16:39;;;;;;;6.35;4.45;;;9.20;99.90;;;;;;5022658;28;20053;-63
2022/12/20 01:19:06;;;;;;;7.82;4.55;;;9.20;99.90;;;;;;5011895;28;20491;-63
2022/12/20 01:21:32;;;;;;;7.60;4.38;;;9.20;99.90;;;;;;5022735;28;20052;-65
2022/12/20 01:23:58;;;;;;;8.35;4.82;;;9.20;99.90;;;;;;5020615;28;20099;-65
2022/12/20 01:26:27;;;;;;;8.23;4.43;;;9.30;99.90;;;;;;5021804;28;20445;-64
2022/12/20 01:28:57;;;;;;;7.00;4.68;;;9.20;99.90;;;;;;5013092;28;20512;-65
2022/12/20 01:31:23;;;;;;;5.68;4.35;;;9.20;99.90;;;;;;5022048;28;20045;-66
2022/12/20 01:33:51;;;;;;;12.27;4.68;;;9.20;99.90;;;;;;5023532;28;20093;-64
2022/12/20 01:36:24;;;;;;;6.57;4.00;;;9.30;99.90;;;;;;5019504;28;20050;-64
2022/12/20 01:38:50;;;;;;;;;;;9.30;99.90;;;;;;5020033;28;20057;-64
2022/12/20 01:41:17;;;;;;;6.55;4.13;;;9.30;99.90;;;;;;5007131;28;19920;-64
2022/12/20 01:43:45;;;;;;;8.25;4.25;;;9.30;99.90;;;;;;5024259;28;20084;-65
2022/12/20 01:46:11;;;;;;;6.85;4.30;;;9.30;99.90;;;;;;5022360;28;20049;-63
2022/12/20 01:48:37;;;;;;;8.13;4.65;;;9.30;99.90;;;;;;5025862;28;20095;-63
2022/12/20 01:51:03;;;;;;;7.03;4.25;;;9.30;99.90;;;;;;5022038;28;20527;-64
2022/12/20 01:53:30;;;;;;;7.28;4.20;;;9.30;99.90;;;;;;5025084;28;20446;-65
2022/12/20 01:56:00;;;;;;;7.30;3.67;;;9.20;99.90;;;;;;5022837;28;20452;-63
2022/12/20 01:58:26;;;;;;;7.03;4.03;;;9.20;99.90;;;;;;5027601;28;20175;-66
2022/12/20 02:06:31;;;;;;;6.50;4.10;;;9.20;99.90;;;;;;5042799;28;20052;-66
2022/12/20 02:09:00;;;;;;;9.07;4.43;;;9.20;99.90;;;;;;5001765;28;20048;-66
2022/12/20 02:11:29;;;;;;;5.82;3.85;;;9.10;99.90;;;;;;5037318;28;21099;-68
2022/12/20 02:14:09;;;;;;;6.45;4.10;;;9.10;99.90;;;;;;5017333;28;20052;-69
2022/12/20 02:16:49;;;;;;;8.73;4.05;;;9.00;99.90;;;;;;5032101;28;20059;-67
2022/12/20 02:19:46;;;;;;;7.40;3.83;;;9.10;99.90;;;;;;5014048;28;20037;-66
2022/12/20 02:22:43;;;;;;;5.60;4.15;;;9.10;99.90;;;;;;5020088;28;20087;-67
2022/12/20 02:25:41;;;;;;;7.88;4.57;;;9.10;99.90;;;;;;5030735;28;20198;-66
2022/12/20 02:28:07;;;;;;;6.05;4.18;;;9.10;99.90;;;;;;5016172;28;20114;-67
2022/12/20 02:30:37;;;;;;;6.93;4.15;;;9.10;99.90;;;;;;5037546;28;20448;-69
2022/12/20 02:33:09;;;;;;;10.85;4.13;;;9.10;99.90;;;;;;5034545;28;20037;-69
2022/12/20 02:35:37;;;;;;;9.20;4.20;;;9.10;99.90;;;;;;5033052;28;20049;-69
2022/12/20 02:38:24;;;;;;;7.07;3.83;;;9.20;99.90;;;;;;5039064;28;20095;-69
2022/12/20 02:40:54;;;;;;;5.75;3.80;;;9.10;99.90;;;;;;5049723;28;20414;-69
2022/12/20 02:46:12;;;;;;;7.47;4.28;;;9.10;99.90;;;;;;5018136;28;20059;-69
2022/12/20 02:48:39;;;;;;;6.55;4.15;;;9.10;99.90;;;;;;5034196;28;20177;-69
2022/12/20 02:51:06;;;;;;;9.98;3.80;;;9.10;99.90;;;;;;5004710;28;20456;-69
2022/12/20 02:53:33;;;;;;;8.57;4.15;;;9.10;99.90;;;;;;5034177;28;20489;-69
2022/12/20 02:56:27;;;;;;;7.25;4.10;;;9.20;99.90;;;;;;5029418;28;20592;-69
2022/12/20 02:59:11;;;;;;;6.53;3.88;;;9.20;99.90;;;;;;5029572;28;20051;-69
2022/12/20 03:01:43;;;;;;;9.50;4.55;;;9.20;99.90;;;;;;5029119;28;20071;-69
2022/12/20 03:04:10;;;;;;;5.90;4.53;;;9.20;99.90;;;;;;5039291;28;20040;-69
2022/12/20 03:06:36;;;;;;;6.88;4.00;;;9.20;99.90;;;;;;5021433;28;20041;-69
2022/12/20 03:09:02;;;;;;;7.43;4.45;;;9.20;99.90;;;;;;5009352;28;20036;-69
2022/12/20 03:11:28;;;;;;;8.23;4.38;;;9.20;99.90;;;;;;5017242;28;20067;-70
2022/12/20 03:13:53;;;;;;;6.03;4.03;;;9.20;99.90;;;;;;5040561;28;20040;-69
2022/12/20 03:16:19;;;;;;;7.63;4.30;;;9.20;99.90;;;;;;5038072;28;20062;-67
2022/12/20 03:18:46;;;;;;;7.38;4.55;;;9.20;99.90;;;;;;5028214;28;20049;-67
2022/12/20 03:21:12;;;;;;;9.70;4.68;;;9.30;99.90;;;;;;5043876;28;20049;-67
2022/12/20 03:23:38;;;;;;;7.40;4.68;;;9.20;99.90;;;;;;5030424;28;20067;-67
2022/12/20 03:26:04;;;;;;;14.55;5.13;;;9.20;99.90;;;;;;5008174;28;20044;-67
2022/12/20 03:28:30;;;;;;;8.95;4.50;;;9.20;99.90;;;;;;5028405;28;20060;-67
2022/12/20 03:30:56;;;;;;;10.38;4.63;;;9.20;99.90;;;;;;5037858;28;20474;-68
2022/12/20 03:33:21;;;;;;;7.40;4.55;;;9.20;99.90;;;;;;5023048;28;20754;-67
2022/12/20 03:35:48;;;;;;;7.35;4.43;;;9.20;99.90;;;;;;4997950;28;20122;-67
2022/12/20 03:38:13;;;;;;;6.10;4.20;;;9.20;99.90;;;;;;5021571;28;20474;-67
2022/12/20 03:40:39;;;;;;;8.88;4.63;;;9.10;99.90;;;;;;5024110;28;20201;-68
2022/12/20 03:43:05;;;;;;;9.07;4.60;;;9.20;99.90;;;;;;5022898;28;21882;-67
2022/12/20 03:45:31;;;;;;;7.05;4.80;;;9.20;99.90;;;;;;5040489;28;20104;-67
2022/12/20 03:47:56;;;;;;;7.53;4.57;;;9.20;99.90;;;;;;5035381;28;20447;-68
2022/12/20 03:50:22;;;;;;;8.68;5.18;;;9.20;99.90;;;;;;5040896;28;20052;-67
2022/12/20 03:52:48;;;;;;;7.45;4.93;;;9.20;99.90;;;;;;5035149;28;20040;-67
2022/12/20 03:55:14;;;;;;;9.20;4.75;;;9.20;99.90;;;;;;5011385;28;20048;-67
2022/12/20 03:57:41;;;;;;;9.88;4.57;;;9.30;99.90;;;;;;5019317;28;20045;-67
2022/12/20 04:00:07;;;;;;;9.90;4.63;;;9.20;99.90;;;;;;5028751;28;20060;-67
2022/12/20 04:02:33;;;;;;;6.25;4.57;;;9.20;99.90;;;;;;5004606;28;20054;-67
2022/12/20 04:05:00;;;;;;;8.05;4.78;;;9.20;99.90;;;;;;5027239;28;20045;-67
2022/12/20 04:07:26;;;;;;;6.25;4.70;;;9.20;99.90;;;;;;5019809;28;20051;-67
2022/12/20 04:09:52;;;;;;;6.05;4.40;;;9.20;99.90;;;;;;5025607;28;20041;-67
2022/12/20 04:12:18;;;;;;;7.50;4.80;;;9.20;99.90;;;;;;5038792;28;20056;-68
2022/12/20 04:14:43;;;;;;;6.85;4.60;;;9.20;99.90;;;;;;5053135;28;20138;-67
2022/12/20 04:17:09;;;;;;;8.18;5.20;;;9.20;99.90;;;;;;5039336;28;20051;-67
2022/12/20 04:19:35;;;;;;;8.57;4.90;;;9.20;99.90;;;;;;5028032;28;20053;-67
2022/12/20 04:22:01;;;;;;;8.40;5.20;;;9.20;99.90;;;;;;5005401;28;20045;-67
2022/12/20 04:24:27;;;;;;;6.18;4.70;;;9.20;99.90;;;;;;5038830;28;20106;-67
2022/12/20 04:26:53;;;;;;;7.53;4.65;;;9.20;99.90;;;;;;5036759;28;20048;-67
2022/12/20 04:29:18;;;;;;;8.25;4.53;;;9.30;99.90;;;;;;5023303;28;20549;-67
2022/12/20 04:31:44;;;;;;;6.90;4.32;;;9.30;99.90;;;;;;5043229;28;20045;-67
2022/12/20 04:34:10;;;;;;;8.77;4.95;;;9.30;99.90;;;;;;5032155;28;20038;-67
2022/12/20 04:36:36;;;;;;;8.15;4.88;;;9.30;99.90;;;;;;5029865;28;20055;-67
2022/12/20 04:39:02;;;;;;;6.65;4.82;;;9.30;99.90;;;;;;5018094;28;20041;-67
2022/12/20 04:41:27;;;;;;;8.40;5.40;;;9.40;99.90;;;;;;5053588;28;20090;-67
2022/12/20 04:43:56;;;;;;;9.60;5.40;;;9.40;99.90;;;;;;5027214;28;20059;-67
2022/12/20 04:46:23;;;;;;;10.88;5.28;;;9.40;99.90;;;;;;5038477;28;20067;-67
2022/12/20 04:48:49;;;;;;;9.45;5.47;;;9.40;99.90;;;;;;5033951;28;20049;-67
2022/12/20 04:51:15;;;;;;;9.43;5.10;;;9.50;99.90;;;;;;5032883;28;20048;-67
2022/12/20 04:53:47;;;;;;;8.05;4.90;;;9.40;99.90;;;;;;5024895;28;20044;-67
2022/12/20 04:56:33;;;;;;;9.43;5.43;;;9.40;99.90;;;;;;5023807;28;20060;-67
2022/12/20 04:58:59;;;;;;;8.98;5.07;;;9.50;99.90;;;;;;5034216;28;20102;-67
2022/12/20 05:01:25;;;;;;;8.98;4.95;;;9.40;99.90;;;;;;5035506;28;20048;-67
2022/12/20 05:03:51;;;;;;;13.00;5.45;;;9.50;99.90;;;;;;5036056;28;20052;-67
2022/12/20 05:06:17;;;;;;;11.30;5.03;;;9.50;99.90;;;;;;5017255;28;20057;-67
2022/12/20 05:08:43;;;;;;;9.80;5.07;;;9.60;99.90;;;;;;5021694;28;20478;-67
2022/12/20 05:11:09;;;;;;;9.25;5.00;;;9.50;99.90;;;;;;4993592;28;20128;-67
2022/12/20 05:13:35;;;;;;;7.97;4.50;;;9.50;99.90;;;;;;5025012;28;20103;-67
2022/12/20 05:16:01;;;;;;;7.30;5.07;;;9.60;99.90;;;;;;5050011;28;20475;-67
2022/12/20 05:18:27;;;;;;;7.07;4.90;;;9.60;99.90;;;;;;5030112;28;20052;-68
2022/12/20 05:26:30;;;;;;;8.30;4.70;;;9.70;99.90;;;;;;5020925;28;20505;-67
2022/12/20 05:28:56;;;;;;;7.40;5.07;;;9.70;99.90;;;;;;5036483;28;20052;-67
2022/12/20 05:31:21;;;;;;;10.07;4.82;;;9.70;99.90;;;;;;5047249;28;20045;-67
2022/12/20 05:33:47;;;;;;;7.93;4.80;;;9.80;99.90;;;;;;5014992;28;20075;-67
2022/12/20 05:36:13;;;;;;;11.70;4.93;;;9.70;99.90;;;;;;5020063;28;20203;-67
2022/12/20 05:38:39;;;;;;;8.45;4.68;;;9.70;99.90;;;;;;5044260;28;20041;-67
2022/12/20 05:41:05;;;;;;;6.38;4.32;;;9.80;99.90;;;;;;5038297;28;20045;-67
2022/12/20 05:43:31;;;;;;;8.77;4.72;;;9.80;99.90;;;;;;5017513;28;20049;-67
2022/12/20 05:45:57;;;;;;;8.18;4.15;;;9.70;99.90;;;;;;5001696;28;20087;-67
2022/12/20 05:48:23;;;;;;;7.75;4.70;;;9.80;99.90;;;;;;5003903;28;20477;-67
2022/12/20 05:50:48;;;;;;;8.63;4.53;;;9.80;99.90;;;;;;5002767;28;20041;-67
2022/12/20 05:53:16;;;;;;;7.93;4.00;;;9.80;99.90;;;;;;5020708;28;22445;-67
2022/12/20 05:55:51;;;;;;;7.38;4.32;;;9.90;99.90;;;;;;5024621;28;20099;-67
2022/12/20 05:58:17;;;;;;;6.90;4.15;;;9.80;99.90;;;;;;5037863;28;20049;-67
2022/12/20 06:00:43;;;;;;;8.93;4.60;;;9.90;99.90;;;;;;5022017;28;20102;-67
2022/12/20 06:03:10;;;;;;;7.40;4.05;;;9.90;99.90;;;;;;5033574;28;20061;-67
2022/12/20 06:05:37;;;;;;;7.18;3.90;;;9.90;99.90;;;;;;5036402;28;20084;-67
2022/12/20 06:08:05;;;;;;;7.97;3.90;;;10.00;99.90;;;;;;5022347;28;20060;-67
2022/12/20 06:10:33;;;;;;;9.45;4.28;;;10.00;99.90;;;;;;5019839;28;20040;-67
2022/12/20 06:13:00;;;;;;;7.10;4.45;;;9.90;99.90;;;;;;5029867;28;20045;-67
2022/12/20 06:15:26;;;;;;;6.55;4.25;;;9.90;99.90;;;;;;4977290;28;20083;-67
2022/12/20 06:17:52;;;;;;;6.25;3.95;;;9.90;99.90;;;;;;5023349;28;20088;-67
2022/12/20 06:20:17;;;;;;;8.05;4.15;;;9.90;99.90;;;;;;5003634;28;20136;-67
2022/12/20 06:22:44;;;;;;;7.25;4.32;;;9.90;99.90;;;;;;5019887;28;20049;-68
2022/12/20 06:25:11;;;;;;;10.15;4.40;;;9.90;99.90;;;;;;5034721;28;20047;-67
2022/12/20 06:27:37;;;;;;;5.95;4.00;;;9.90;99.90;;;;;;5033408;28;20053;-67
2022/12/20 06:30:04;;;;;;;6.28;4.00;;;9.90;99.90;;;;;;5018920;28;20049;-67
2022/12/20 06:32:30;;;;;;;6.68;4.03;;;9.90;99.90;;;;;;5021574;28;20045;-67
2022/12/20 06:34:56;;;;;;;6.25;3.95;;;9.90;99.90;;;;;;5006352;28;20064;-67
2022/12/20 06:37:22;;;;;;;7.38;4.10;;;9.90;99.90;;;;;;5011681;28;20088;-67
2022/12/20 06:39:47;;;;;;;6.38;3.70;;;9.90;99.90;;;;;;5031413;28;20045;-68
2022/12/20 06:42:13;;;;;;;6.47;4.07;;;9.90;99.90;;;;;;5018763;28;20130;-67
2022/12/20 06:44:39;;;;;;;9.43;4.20;;;9.90;99.90;;;;;;5030208;28;20045;-67
2022/12/20 06:47:05;;;;;;;5.43;4.05;;;10.00;99.90;;;;;;5011639;28;20063;-67
2022/12/20 06:49:31;;;;;;;6.25;4.00;;;9.90;99.90;;;;;;5039127;28;20077;-67
2022/12/20 06:51:56;;;;;;;7.03;4.35;;;9.90;99.90;;;;;;5030516;28;20083;-67
2022/12/20 06:54:22;;;;;;;10.35;4.32;;;10.00;99.90;;;;;;5016673;28;20088;-67
2022/12/20 06:56:48;;;;;;;5.35;3.80;;;10.00;99.90;;;;;;5035806;28;20132;-67
2022/12/20 06:59:14;;;;;;;6.93;3.83;;;10.00;99.90;;;;;;5003618;28;20048;-67
2022/12/20 07:01:40;;;;;;;8.15;4.30;;;10.00;99.90;;;;;;5016819;28;20503;-68
2022/12/20 07:04:05;;;;;;;6.22;4.10;;;10.10;99.90;;;;;;5015154;28;20057;-65
2022/12/20 07:06:31;;;;;;;9.00;4.20;;;10.10;99.90;;;;;;5032164;28;20061;-66
2022/12/20 07:08:57;;;;;;;6.07;4.57;;;10.10;99.90;;;;;;5039569;28;20056;-54
2022/12/20 07:11:23;;;;;;;5.70;4.47;;;10.10;99.90;;;;;;5035572;28;20510;-55
2022/12/20 07:13:53;;;;;;;7.75;4.85;;;10.10;99.90;;;;;;5038856;28;20041;-55
2022/12/20 07:16:19;;;;;;;7.93;4.88;;;10.10;99.90;;;;;;5032175;28;20093;-56
2022/12/20 07:18:49;;;;;;;6.85;4.78;;;10.10;99.90;;;;;;5027592;28;20550;-56
2022/12/20 07:21:16;;;;;;;8.10;5.03;;;10.10;99.90;;;;;;5034714;28;20053;-56
2022/12/20 07:23:41;;;;;;;6.32;5.35;;;10.10;99.90;;;;;;5026363;28;20041;-56
2022/12/20 07:26:08;;;;;;;7.10;5.35;;;10.10;99.90;;;;;;5040375;28;20052;-56
2022/12/20 07:28:34;;;;;;;6.20;5.35;;;10.00;99.90;;;;;;5038951;28;20745;-55
2022/12/20 07:31:01;;;;;;;10.88;5.93;;;10.00;99.90;;;;;;5034819;28;20166;-56
2022/12/20 07:33:28;;;;;;;10.02;6.85;;;10.00;99.90;;;;;;5039074;28;20384;-57
2022/12/20 07:36:06;;;;;;;7.65;6.32;;;10.00;99.90;;;;;;5038751;28;20045;-56
2022/12/20 07:38:32;;;;;;;7.15;6.20;;;10.00;99.90;;;;;;5040421;28;20072;-56
2022/12/20 07:40:58;;;;;;;10.23;6.68;;;10.00;99.90;;;;;;5050725;28;20437;-57
2022/12/20 07:43:24;;;;;;;11.35;7.20;;;10.00;99.90;;;;;;5042567;28;20045;-56
2022/12/20 07:45:55;;;;;;;10.00;6.90;;;10.00;99.90;;;;;;5035777;28;20045;-56
2022/12/20 07:48:22;;;;;;;9.43;6.97;;;10.00;99.90;;;;;;5053998;28;20569;-56
2022/12/20 07:50:52;;;;;;;8.55;7.25;;;10.00;99.90;;;;;;5036622;28;20772;-56
2022/12/20 07:53:20;;;;;;;9.25;7.43;;;10.00;99.90;;;;;;5040427;28;20047;-55
2022/12/20 07:55:46;;;;;;;10.60;7.07;;;10.00;99.90;;;;;;5034273;28;20098;-56
2022/12/20 07:58:13;;;;;;;12.05;7.72;;;10.00;99.90;;;;;;5027299;28;20140;-54
2022/12/20 08:00:39;;;;;;;11.48;7.72;;;10.00;99.90;;;;;;5034538;28;20034;-54
2022/12/20 08:03:16;;;;;;;14.30;7.72;;;10.00;99.90;;;;;;5023641;28;20049;-57
2022/12/20 08:05:45;;;;;;;11.98;7.82;;;10.00;99.90;;;;;;5041268;28;20056;-55
2022/12/20 08:08:11;;;;;;;10.80;7.88;;;10.00;99.90;;;;;;5056007;28;20057;-56
2022/12/20 08:10:38;;;;;;;9.02;7.22;;;10.00;99.90;;;;;;5054597;28;20032;-55
2022/12/20 08:13:05;;;;;;;11.07;7.47;;;10.00;99.90;;;;;;5043886;28;20161;-56
2022/12/20 08:15:32;;;;;;;9.30;7.10;;;10.00;99.90;;;;;;5053458;28;20151;-55
2022/12/20 08:17:58;;;;;;;10.55;7.10;;;10.10;99.90;;;;;;5045727;28;20129;-56
2022/12/20 08:20:23;;;;;;;8.60;6.95;;;10.10;99.90;;;;;;5037470;28;20520;-56
2022/12/20 08:22:49;;;;;;;10.68;6.75;;;10.00;99.90;;;;;;5041316;28;20045;-56
2022/12/20 08:25:15;;;;;;;8.02;6.38;;;10.10;99.90;;;;;;5052780;28;20052;-56
2022/12/20 08:27:42;;;;;;;8.07;6.70;;;10.10;99.90;;;;;;5055820;28;20155;-56
2022/12/20 08:30:09;;;;;;;12.73;6.57;;;10.10;99.90;;;;;;5042463;28;20044;-56
2022/12/20 08:32:36;;;;;;;7.50;6.40;;;10.10;99.90;;;;;;5056548;28;20044;-56
2022/12/20 08:35:03;;;;;;;7.82;5.97;;;10.10;99.90;;;;;;5054115;28;20110;-57
2022/12/20 08:37:28;;;;;;;9.40;5.90;;;10.20;99.90;;;;;;5057001;28;20044;-56
2022/12/20 08:39:54;;;;;;;8.45;5.38;;;10.20;99.90;;;;;;5035597;28;20134;-55
2022/12/20 08:42:20;;;;;;;8.27;5.35;;;10.30;99.90;;;;;;5050088;28;20135;-56
2022/12/20 08:44:46;;;;;;;7.65;5.20;;;10.20;99.90;;;;;;5053834;28;20048;-56
2022/12/20 08:47:12;;;;;;;8.60;5.00;;;10.20;99.90;;;;;;5054874;28;20401;-56
2022/12/20 08:49:37;;;;;;;6.35;4.72;;;10.20;99.90;;;;;;5051931;28;20044;-56
2022/12/20 08:52:03;;;;;;;7.55;4.65;;;10.20;99.90;;;;;;5053733;28;20048;-56
2022/12/20 08:54:29;;;;;;;7.30;4.70;;;10.20;99.90;;;;;;5053350;28;20474;-56
2022/12/20 08:56:55;;;;;;;6.45;4.57;;;10.20;99.90;;;;;;5041394;28;20108;-56
2022/12/20 08:59:21;;;;;;;9.10;4.10;;;10.20;99.90;;;;;;5056976;28;20045;-56
2022/12/20 09:01:46;;;;;;;8.35;5.03;;;10.20;99.90;;;;;;5052693;28;20119;-58
2022/12/20 09:04:13;;;;;;;6.20;4.40;;;10.20;99.90;;;;;;5052942;28;20037;-57
2022/12/20 09:06:39;;;;;;;7.40;4.50;;;10.30;99.90;;;;;;5040423;28;20049;-56
2022/12/20 09:09:06;;;;;;;8.23;4.10;;;10.20;99.90;;;;;;5036816;28;20150;-55
2022/12/20 09:11:32;;;;;;;8.88;4.28;;;10.20;99.90;;;;;;5055223;28;20044;-57
2022/12/20 09:13:58;;;;;;;6.93;4.32;;;10.30;99.90;;;;;;5052964;28;20055;-56
2022/12/20 09:16:29;;;;;;;9.10;4.13;;;10.20;99.90;;;;;;5054740;28;20132;-56
2022/12/20 09:18:57;;;;;;;8.30;4.03;;;10.30;99.90;;;;;;5038791;28;20048;-57
2022/12/20 09:21:24;;;;;;;7.68;4.00;;;10.30;99.90;;;;;;5051067;28;20051;-57
2022/12/20 09:23:51;;;;;;;6.93;4.28;;;10.30;99.90;;;;;;5045912;28;20044;-54
2022/12/20 09:26:18;;;;;;;7.47;3.90;;;10.40;99.90;;;;;;5042756;28;20056;-56
2022/12/20 09:28:44;;;;;;;6.80;3.80;;;10.40;99.90;;;;;;5056618;28;20041;-55
2022/12/20 09:31:12;;;;;;;5.28;3.60;;;10.40;99.90;;;;;;5057777;28;20063;-55
2022/12/20 09:33:40;;;;;;;5.95;3.78;;;10.40;99.90;;;;;;5056770;28;20045;-54
2022/12/20 09:36:09;;;;;;;6.65;3.72;;;10.40;99.90;;;;;;5042081;28;20045;-55
2022/12/20 09:38:35;;;;;;;5.63;3.55;;;10.50;99.90;;;;;;5059814;28;20052;-56
2022/12/20 09:41:04;;;;;;;9.15;3.78;;;10.50;99.90;;;;;;5038663;28;20060;-57
2022/12/20 09:43:32;;;;;;;9.13;3.60;;;10.50;99.90;;;;;;5037293;28;20498;-56
2022/12/20 09:46:00;;;;;;;5.75;3.78;;;10.60;99.90;;;;;;5041014;28;20044;-55
2022/12/20 09:48:38;;;;;;;6.57;3.50;;;10.60;99.90;;;;;;5057426;28;20131;-56
2022/12/20 09:51:10;;;;;;;4.88;3.80;;;10.60;99.90;;;;;;5036396;28;20073;-56
2022/12/20 09:54:05;;;;;;;4.82;3.70;;;10.70;99.90;;;;;;5058434;28;20049;-55
2022/12/20 09:57:00;;;;;;;6.80;3.28;;;10.70;99.90;;;;;;5057488;28;20041;-56
2022/12/20 09:59:27;;;;;;;6.75;3.60;;;10.70;99.90;;;;;;5028107;28;20048;-54
2022/12/20 10:01:53;;;;;;;8.52;3.33;;;10.70;99.90;;;;;;5053242;28;20083;-56
2022/12/20 10:04:27;;;;;;;5.25;3.35;;;10.80;99.90;;;;;;5055026;28;20072;-55
2022/12/20 10:06:56;;;;;;;9.30;3.40;;;10.80;99.90;;;;;;5056575;28;20056;-56
2022/12/20 10:10:15;;;;;;;4.85;3.40;;;10.80;99.90;;;;;;5054469;28;20470;-56
2022/12/20 10:13:07;;;;;;;4.78;3.00;;;10.80;99.90;;;;;;5035640;28;20126;-56
2022/12/20 10:15:39;;;;;;;5.13;3.10;;;10.80;99.90;;;;;;5055033;28;20119;-54
2022/12/20 10:18:05;;;;;;;6.30;3.40;;;10.80;99.90;;;;;;5059241;28;20494;-56
2022/12/20 10:20:49;;;;;;;6.63;3.50;;;10.80;99.90;;;;;;5056678;28;20051;-57
2022/12/20 10:23:39;;;;;;;6.63;3.20;;;10.80;99.90;;;;;;5028561;28;20048;-56
2022/12/20 10:26:10;;;;;;;5.28;3.47;;;10.80;99.90;;;;;;5054568;28;20395;-56
2022/12/20 10:28:36;;;;;;;6.55;4.13;;;10.80;99.90;;;;;;5045619;28;20059;-56
2022/12/20 10:31:05;;;;;;;7.05;3.38;;;10.80;99.90;;;;;;5037759;28;20055;-56
2022/12/20 10:33:31;;;;;;;6.72;3.38;;;10.80;99.90;;;;;;5054341;28;20070;-55
2022/12/20 10:36:17;;;;;;;4.60;3.30;;;10.80;99.90;;;;;;5039418;28;20430;-57
2022/12/20 10:38:46;;;;;;;6.50;3.13;;;10.80;99.90;;;;;;5055553;28;20044;-56
2022/12/20 10:41:29;;;;;;;5.40;3.50;;;10.80;99.90;;;;;;5052230;28;20045;-56
2022/12/20 10:44:03;;;;;;;8.55;4.10;;;10.80;99.90;;;;;;5054154;28;20079;-55
2022/12/20 10:46:48;;;;;;;7.95;3.88;;;10.80;99.90;;;;;;5054693;28;20048;-55
2022/12/20 10:49:32;;;;;;;5.90;3.63;;;10.80;99.90;;;;;;5058807;28;20045;-55
2022/12/20 10:52:07;;;;;;;7.13;3.45;;;10.80;99.90;;;;;;5052839;28;20036;-56
2022/12/20 10:54:38;;;;;;;7.35;3.40;;;10.80;99.90;;;;;;5056058;28;20044;-56
2022/12/20 10:57:27;;;;;;;7.57;3.78;;;10.90;99.90;;;;;;5048786;28;20513;-55
2022/12/20 11:00:04;;;;;;;4.18;3.20;;;10.80;99.90;;;;;;5047120;28;20041;-56
2022/12/20 11:02:32;;;;;;;7.38;3.55;;;10.90;99.90;;;;;;5058079;28;20044;-56
2022/12/20 11:05:10;;;;;;;5.25;3.20;;;10.90;99.90;;;;;;5055834;28;20440;-57
2022/12/20 11:07:52;;;;;;;6.32;3.53;;;10.90;99.90;;;;;;5055683;28;20069;-55
2022/12/20 11:10:22;;;;;;;6.90;4.18;;;10.90;99.90;;;;;;5036499;28;20087;-55
2022/12/20 11:12:59;;;;;;;7.72;3.78;;;10.90;99.90;;;;;;5053608;28;20051;-55
2022/12/20 11:15:31;;;;;;;12.18;3.78;;;10.90;99.90;;;;;;5052478;28;20495;-56
2022/12/20 11:18:11;;;;;;;6.07;3.90;;;10.80;99.90;;;;;;5053294;28;20067;-55
2022/12/20 11:20:41;;;;;;;5.88;3.75;;;10.80;99.90;;;;;;5020413;28;20322;-57
2022/12/20 11:23:32;;;;;;;9.45;3.95;;;10.70;99.90;;;;;;5044474;28;20052;-57
2022/12/20 11:26:04;;;;;;;6.80;4.28;;;10.70;99.90;;;;;;5053836;28;20082;-55
2022/12/20 11:29:02;;;;;;;6.93;4.72;;;10.70;99.90;;;;;;5055142;28;20486;-56
2022/12/20 11:31:31;;;;;;;8.40;5.72;;;10.70;99.90;;;;;;5031216;28;20463;-57
2022/12/20 11:34:19;;;;;;;5.90;4.63;;;10.70;99.90;;;;;;5042039;28;20068;-56
2022/12/20 11:37:15;;;;;;;8.88;5.88;;;10.70;99.90;;;;;;5055178;28;20116;-56
2022/12/20 11:40:01;;;;;;;8.20;5.50;;;10.70;99.90;;;;;;5054938;28;20049;-56
2022/12/20 11:42:39;;;;;;;8.27;5.93;;;10.60;99.90;;;;;;5054562;28;20639;-56
2022/12/20 11:45:14;;;;;;;12.10;6.63;;;10.60;99.90;;;;;;5055197;28;20389;-55
2022/12/20 11:47:57;;;;;;;6.63;5.35;;;10.60;99.90;;;;;;5055372;28;20041;-56
2022/12/20 11:50:32;;;;;;;10.23;6.70;;;10.60;99.90;;;;;;5034269;28;20491;-56
2022/12/20 11:53:07;;;;;;;8.60;6.32;;;10.60;99.90;;;;;;5052719;28;20040;-56
2022/12/20 11:55:40;;;;;;;12.00;6.88;;;10.60;99.90;;;;;;5056004;28;20044;-55
2022/12/20 11:58:25;;;;;;;9.68;6.00;;;10.60;99.90;;;;;;5053272;28;20440;-57
2022/12/20 12:01:03;;;;;;;9.40;6.35;;;10.60;99.90;;;;;;5048539;28;20044;-54
2022/12/20 12:03:37;;;;;;;9.50;6.30;;;10.60;99.90;;;;;;5052986;28;20588;-57
2022/12/20 12:06:18;;;;;;;7.18;6.32;;;10.60;99.90;;;;;;5055198;28;20426;-55
2022/12/20 12:08:50;;;;;;;9.90;7.72;;;10.60;99.90;;;;;;5057141;28;20048;-55
2022/12/20 12:11:18;;;;;;;9.93;8.10;;;10.60;99.90;;;;;;5033809;28;20052;-55
2022/12/20 12:13:44;;;;;;;10.50;7.00;;;10.60;99.90;;;;;;5042266;28;20056;-57
2022/12/20 12:16:16;;;;;;;9.27;7.80;;;10.50;99.90;;;;;;5024998;28;20126;-57
2022/12/20 12:18:42;;;;;;;12.25;7.28;;;10.50;99.90;;;;;;5053837;28;20040;-55
2022/12/20 12:21:25;;;;;;;9.45;6.45;;;10.50;99.90;;;;;;5056365;28;20051;-56
2022/12/20 12:24:07;;;;;;;;;;;10.50;99.90;;;;;;5054914;28;20044;-54
2022/12/20 12:26:39;;;;;;;9.20;6.55;;;10.50;99.90;;;;;;5053785;28;19924;-56
2022/12/20 12:29:08;;;;;;;11.25;8.02;;;10.50;99.90;;;;;;5053962;28;20032;-56
2022/12/20 12:31:55;;;;;;;12.15;7.80;;;10.50;99.90;;;;;;5052489;28;20102;-56
2022/12/20 12:34:48;;;;;;;16.13;8.20;;;10.50;99.90;;;;;;5049355;28;20048;-57
2022/12/20 12:38:01;;;;;;;11.32;8.38;;;10.50;99.90;;;;;;5054579;28;20049;-57
2022/12/20 12:40:59;;;;;;;12.52;9.18;;;10.50;99.90;;;;;;4958912;28;20074;-56
2022/12/20 12:43:45;;;;;;;11.02;9.20;;;10.50;99.90;;;;;;4940160;28;20046;-57
2022/12/20 12:46:26;;;;;;;11.32;7.95;;;10.40;99.90;;;;;;5022899;28;20067;-56
2022/12/20 12:49:14;;;;;;;14.20;7.43;;;10.40;99.90;;;;;;5052622;28;20475;-56
2022/12/20 12:51:48;;;;;;;8.25;6.57;;;10.40;99.90;;;;;;5051044;28;20040;-56
2022/12/20 12:54:35;;;;;;;10.00;7.63;;;10.40;99.90;;;;;;5053442;28;20067;-56
2022/12/20 12:57:13;;;;;;;9.95;8.15;;;10.40;99.90;;;;;;5052125;28;20114;-57
2022/12/20 12:59:48;;;;;;;9.93;6.97;;;10.40;99.90;;;;;;5018230;28;20534;-57
2022/12/20 13:02:13;;;;;;;12.77;8.75;;;10.40;99.90;;;;;;5052203;28;20052;-56
2022/12/20 13:05:11;;;;;;;13.52;10.65;;;10.40;99.90;;;;;;5041419;28;20127;-56
2022/12/20 13:07:42;;;;;;;9.32;6.63;;;10.40;99.90;;;;;;5050385;28;20087;-56
2022/12/20 13:10:08;;;;;;;9.82;7.70;;;10.40;99.90;;;;;;5051094;28;20121;-57
2022/12/20 13:12:36;;;;;;;14.25;9.90;;;10.40;99.90;;;;;;5052404;28;20036;-56
2022/12/20 13:15:02;;;;;;;11.65;9.35;;;10.30;99.90;;;;;;5048243;28;20057;-55
2022/12/20 13:17:28;;;;;;;14.90;10.23;;;10.30;99.90;;;;;;5051067;28;20106;-56
2022/12/20 13:19:55;;;;;;;14.02;10.18;;;10.30;99.90;;;;;;5050593;28;20048;-55